sensor_id;sensor_type;location;lat;lon;timestamp;P1;durP1;ratioP1;P2;durP2;ratioP2
2784;SDS011;57944;48.722;9.316;2023-08-06T00:00:32;20.97;;;15.50;;
2784;SDS011;57944;48.722;9.316;2023-08-06T00:03:06;23.60;;;16.83;;
2784;SDS011;57944;48.722;9.316;2023-08-06T00:05:37;21.00;;;15.00;;
2784;SDS011;57944;48.722;9.316;2023-08-06T00:08:10;19.27;;;14.13;;
2784;SDS011;57944;48.722;9.316;2023-08-06T00:10:41;22.00;;;15.87;;
2784;SDS011;57944;48.722;9.316;2023-08-06T00:13:12;23.73;;;16.97;;
2784;SDS011;57944;48.722;9.316;2023-08-06T00:15:44;19.40;;;14.60;;
2784;SDS011;57944;48.722;9.316;2023-08-06T00:18:17;23.03;;;16.70;;
2784;SDS011;57944;48.722;9.316;2023-08-06T00:20:48;20.60;;;14.90;;
2784;SDS011;57944;48.722;9.316;2023-08-06T00:23:19;20.60;;;14.87;;
2784;SDS011;57944;48.722;9.316;2023-08-06T00:25:50;21.07;;;14.50;;
2784;SDS011;57944;48.722;9.316;2023-08-06T00:28:21;20.30;;;13.60;;
2784;SDS011;57944;48.722;9.316;2023-08-06T00:30:52;22.20;;;14.50;;
2784;SDS011;57944;48.722;9.316;2023-08-06T00:33:26;19.27;;;14.40;;
2784;SDS011;57944;48.722;9.316;2023-08-06T00:35:57;21.17;;;15.80;;
2784;SDS011;57944;48.722;9.316;2023-08-06T00:38:28;22.13;;;14.50;;
2784;SDS011;57944;48.722;9.316;2023-08-06T00:40:59;22.03;;;15.17;;
2784;SDS011;57944;48.722;9.316;2023-08-06T00:43:30;23.20;;;16.70;;
2784;SDS011;57944;48.722;9.316;2023-08-06T00:46:05;20.77;;;16.20;;
2784;SDS011;57944;48.722;9.316;2023-08-06T00:48:39;21.13;;;15.37;;
2784;SDS011;57944;48.722;9.316;2023-08-06T00:51:10;27.33;;;17.87;;
2784;SDS011;57944;48.722;9.316;2023-08-06T00:53:42;23.90;;;15.03;;
2784;SDS011;57944;48.722;9.316;2023-08-06T00:56:13;21.67;;;16.00;;
2784;SDS011;57944;48.722;9.316;2023-08-06T00:58:44;19.80;;;14.17;;
2784;SDS011;57944;48.722;9.316;2023-08-06T01:01:15;22.87;;;15.90;;
2784;SDS011;57944;48.722;9.316;2023-08-06T01:03:49;22.20;;;15.93;;
2784;SDS011;57944;48.722;9.316;2023-08-06T01:06:23;21.70;;;15.67;;
2784;SDS011;57944;48.722;9.316;2023-08-06T01:09:06;26.63;;;14.97;;
2784;SDS011;57944;48.722;9.316;2023-08-06T01:11:49;23.80;;;16.70;;
2784;SDS011;57944;48.722;9.316;2023-08-06T01:14:30;26.87;;;16.20;;
2784;SDS011;57944;48.722;9.316;2023-08-06T01:17:07;19.87;;;15.27;;
2784;SDS011;57944;48.722;9.316;2023-08-06T01:19:42;19.53;;;13.10;;
2784;SDS011;57944;48.722;9.316;2023-08-06T01:22:15;20.33;;;12.47;;
2784;SDS011;57944;48.722;9.316;2023-08-06T01:24:46;17.20;;;14.03;;
2784;SDS011;57944;48.722;9.316;2023-08-06T01:27:30;20.70;;;12.60;;
2784;SDS011;57944;48.722;9.316;2023-08-06T01:30:35;23.37;;;15.50;;
2784;SDS011;57944;48.722;9.316;2023-08-06T01:33:26;20.90;;;12.90;;
2784;SDS011;57944;48.722;9.316;2023-08-06T01:36:01;14.87;;;11.33;;
2784;SDS011;57944;48.722;9.316;2023-08-06T01:38:36;18.40;;;13.03;;
2784;SDS011;57944;48.722;9.316;2023-08-06T01:41:07;18.67;;;13.03;;
2784;SDS011;57944;48.722;9.316;2023-08-06T01:43:38;16.03;;;11.90;;
2784;SDS011;57944;48.722;9.316;2023-08-06T01:46:09;24.07;;;12.10;;
2784;SDS011;57944;48.722;9.316;2023-08-06T01:48:40;18.77;;;11.23;;
2784;SDS011;57944;48.722;9.316;2023-08-06T01:51:11;21.67;;;12.00;;
2784;SDS011;57944;48.722;9.316;2023-08-06T01:53:45;13.33;;;10.80;;
2784;SDS011;57944;48.722;9.316;2023-08-06T01:56:17;19.00;;;11.60;;
2784;SDS011;57944;48.722;9.316;2023-08-06T01:58:48;12.73;;;9.30;;
2784;SDS011;57944;48.722;9.316;2023-08-06T02:01:20;13.90;;;10.70;;
2784;SDS011;57944;48.722;9.316;2023-08-06T02:03:50;10.63;;;9.33;;
2784;SDS011;57944;48.722;9.316;2023-08-06T02:06:21;11.50;;;8.70;;
2784;SDS011;57944;48.722;9.316;2023-08-06T02:12:29;10.60;;;7.67;;
2784;SDS011;57944;48.722;9.316;2023-08-06T02:15:00;14.17;;;9.10;;
2784;SDS011;57944;48.722;9.316;2023-08-06T02:17:31;8.30;;;7.00;;
2784;SDS011;57944;48.722;9.316;2023-08-06T02:20:02;9.57;;;8.27;;
2784;SDS011;57944;48.722;9.316;2023-08-06T02:22:34;9.20;;;7.43;;
2784;SDS011;57944;48.722;9.316;2023-08-06T02:25:05;9.70;;;7.73;;
2784;SDS011;57944;48.722;9.316;2023-08-06T02:27:39;9.40;;;7.00;;
2784;SDS011;57944;48.722;9.316;2023-08-06T02:30:10;11.27;;;7.20;;
2784;SDS011;57944;48.722;9.316;2023-08-06T02:32:41;10.70;;;6.90;;
2784;SDS011;57944;48.722;9.316;2023-08-06T02:35:13;11.13;;;5.77;;
2784;SDS011;57944;48.722;9.316;2023-08-06T02:37:45;10.10;;;7.90;;
2784;SDS011;57944;48.722;9.316;2023-08-06T02:40:16;10.87;;;7.40;;
2784;SDS011;57944;48.722;9.316;2023-08-06T02:42:49;11.73;;;7.20;;
2784;SDS011;57944;48.722;9.316;2023-08-06T02:45:20;9.40;;;6.53;;
2784;SDS011;57944;48.722;9.316;2023-08-06T02:47:51;8.73;;;6.40;;
2784;SDS011;57944;48.722;9.316;2023-08-06T02:50:22;8.50;;;5.67;;
2784;SDS011;57944;48.722;9.316;2023-08-06T02:52:53;9.73;;;6.20;;
2784;SDS011;57944;48.722;9.316;2023-08-06T02:55:24;7.77;;;4.77;;
2784;SDS011;57944;48.722;9.316;2023-08-06T02:57:57;12.70;;;5.53;;
2784;SDS011;57944;48.722;9.316;2023-08-06T03:00:32;9.63;;;6.10;;
2784;SDS011;57944;48.722;9.316;2023-08-06T03:03:05;8.37;;;5.20;;
2784;SDS011;57944;48.722;9.316;2023-08-06T03:05:52;7.90;;;5.33;;
2784;SDS011;57944;48.722;9.316;2023-08-06T03:08:33;8.10;;;6.17;;
2784;SDS011;57944;48.722;9.316;2023-08-06T03:11:04;8.17;;;5.63;;
2784;SDS011;57944;48.722;9.316;2023-08-06T03:13:37;7.80;;;5.13;;
2784;SDS011;57944;48.722;9.316;2023-08-06T03:16:08;9.23;;;6.00;;
2784;SDS011;57944;48.722;9.316;2023-08-06T03:18:39;10.27;;;6.30;;
2784;SDS011;57944;48.722;9.316;2023-08-06T03:21:11;6.83;;;5.27;;
2784;SDS011;57944;48.722;9.316;2023-08-06T03:23:42;7.60;;;5.87;;
2784;SDS011;57944;48.722;9.316;2023-08-06T03:26:13;9.50;;;5.17;;
2784;SDS011;57944;48.722;9.316;2023-08-06T03:28:47;9.10;;;5.80;;
2784;SDS011;57944;48.722;9.316;2023-08-06T03:31:19;8.33;;;5.17;;
2784;SDS011;57944;48.722;9.316;2023-08-06T03:33:50;11.93;;;5.13;;
2784;SDS011;57944;48.722;9.316;2023-08-06T03:36:24;8.20;;;5.73;;
2784;SDS011;57944;48.722;9.316;2023-08-06T03:38:55;10.53;;;4.93;;
2784;SDS011;57944;48.722;9.316;2023-08-06T03:41:28;8.60;;;5.60;;
2784;SDS011;57944;48.722;9.316;2023-08-06T03:44:01;9.13;;;4.93;;
2784;SDS011;57944;48.722;9.316;2023-08-06T03:53:15;7.03;;;4.37;;
2784;SDS011;57944;48.722;9.316;2023-08-06T03:55:47;5.70;;;4.13;;
2784;SDS011;57944;48.722;9.316;2023-08-06T04:02:04;7.87;;;5.13;;
2784;SDS011;57944;48.722;9.316;2023-08-06T04:04:35;9.70;;;4.50;;
2784;SDS011;57944;48.722;9.316;2023-08-06T04:07:05;6.40;;;3.33;;
2784;SDS011;57944;48.722;9.316;2023-08-06T04:09:52;6.93;;;3.90;;
2784;SDS011;57944;48.722;9.316;2023-08-06T04:12:24;8.83;;;7.40;;
2784;SDS011;57944;48.722;9.316;2023-08-06T04:14:56;6.30;;;4.17;;
2784;SDS011;57944;48.722;9.316;2023-08-06T04:17:31;6.93;;;4.13;;
2784;SDS011;57944;48.722;9.316;2023-08-06T04:20:02;5.53;;;3.90;;
2784;SDS011;57944;48.722;9.316;2023-08-06T04:22:33;7.43;;;3.40;;
2784;SDS011;57944;48.722;9.316;2023-08-06T04:25:04;4.90;;;3.63;;
2784;SDS011;57944;48.722;9.316;2023-08-06T04:27:36;5.93;;;3.90;;
2784;SDS011;57944;48.722;9.316;2023-08-06T04:30:09;5.77;;;3.63;;
2784;SDS011;57944;48.722;9.316;2023-08-06T04:32:43;7.70;;;3.77;;
2784;SDS011;57944;48.722;9.316;2023-08-06T04:35:15;6.00;;;3.53;;
2784;SDS011;57944;48.722;9.316;2023-08-06T04:37:46;6.17;;;4.03;;
2784;SDS011;57944;48.722;9.316;2023-08-06T04:40:17;7.23;;;3.90;;
2784;SDS011;57944;48.722;9.316;2023-08-06T04:42:48;7.43;;;3.33;;
2784;SDS011;57944;48.722;9.316;2023-08-06T04:45:19;6.90;;;3.60;;
2784;SDS011;57944;48.722;9.316;2023-08-06T04:47:54;7.43;;;3.50;;
2784;SDS011;57944;48.722;9.316;2023-08-06T04:50:25;7.07;;;3.90;;
2784;SDS011;57944;48.722;9.316;2023-08-06T04:52:55;4.47;;;3.20;;
2784;SDS011;57944;48.722;9.316;2023-08-06T04:55:26;6.70;;;3.67;;
2784;SDS011;57944;48.722;9.316;2023-08-06T04:57:57;8.50;;;3.27;;
2784;SDS011;57944;48.722;9.316;2023-08-06T05:00:27;5.00;;;3.43;;
2784;SDS011;57944;48.722;9.316;2023-08-06T05:03:01;6.40;;;3.23;;
2784;SDS011;57944;48.722;9.316;2023-08-06T05:05:33;6.40;;;2.33;;
2784;SDS011;57944;48.722;9.316;2023-08-06T05:08:04;6.73;;;2.57;;
2784;SDS011;57944;48.722;9.316;2023-08-06T05:10:34;5.20;;;2.80;;
2784;SDS011;57944;48.722;9.316;2023-08-06T05:13:05;6.60;;;2.43;;
2784;SDS011;57944;48.722;9.316;2023-08-06T05:15:36;5.03;;;2.33;;
2784;SDS011;57944;48.722;9.316;2023-08-06T05:18:12;6.10;;;2.33;;
2784;SDS011;57944;48.722;9.316;2023-08-06T05:20:43;4.53;;;2.00;;
2784;SDS011;57944;48.722;9.316;2023-08-06T05:23:14;5.93;;;2.43;;
2784;SDS011;57944;48.722;9.316;2023-08-06T05:25:45;8.00;;;2.30;;
2784;SDS011;57944;48.722;9.316;2023-08-06T05:28:16;4.90;;;2.20;;
2784;SDS011;57944;48.722;9.316;2023-08-06T05:30:47;5.43;;;2.30;;
2784;SDS011;57944;48.722;9.316;2023-08-06T05:33:20;3.67;;;2.20;;
2784;SDS011;57944;48.722;9.316;2023-08-06T05:35:51;4.37;;;1.80;;
2784;SDS011;57944;48.722;9.316;2023-08-06T05:38:22;4.60;;;2.17;;
2784;SDS011;57944;48.722;9.316;2023-08-06T05:40:53;6.13;;;2.70;;
2784;SDS011;57944;48.722;9.316;2023-08-06T05:43:24;8.20;;;2.30;;
2784;SDS011;57944;48.722;9.316;2023-08-06T05:45:57;5.07;;;2.17;;
2784;SDS011;57944;48.722;9.316;2023-08-06T05:48:31;4.70;;;2.00;;
2784;SDS011;57944;48.722;9.316;2023-08-06T05:51:02;5.03;;;1.73;;
2784;SDS011;57944;48.722;9.316;2023-08-06T05:53:33;4.93;;;1.77;;
2784;SDS011;57944;48.722;9.316;2023-08-06T05:56:03;4.67;;;1.40;;
2784;SDS011;57944;48.722;9.316;2023-08-06T05:58:34;5.00;;;1.97;;
2784;SDS011;57944;48.722;9.316;2023-08-06T06:01:05;7.40;;;2.20;;
2784;SDS011;57944;48.722;9.316;2023-08-06T06:03:39;2.87;;;1.53;;
2784;SDS011;57944;48.722;9.316;2023-08-06T06:06:10;6.20;;;1.50;;
2784;SDS011;57944;48.722;9.316;2023-08-06T06:08:42;6.20;;;1.50;;
2784;SDS011;57944;48.722;9.316;2023-08-06T06:11:13;5.30;;;1.50;;
2784;SDS011;57944;48.722;9.316;2023-08-06T06:13:49;7.73;;;1.97;;
2784;SDS011;57944;48.722;9.316;2023-08-06T06:16:20;3.60;;;1.57;;
2784;SDS011;57944;48.722;9.316;2023-08-06T06:18:54;2.80;;;1.23;;
2784;SDS011;57944;48.722;9.316;2023-08-06T06:21:25;3.90;;;1.70;;
2784;SDS011;57944;48.722;9.316;2023-08-06T06:23:55;4.57;;;1.90;;
2784;SDS011;57944;48.722;9.316;2023-08-06T06:26:26;4.43;;;1.70;;
2784;SDS011;57944;48.722;9.316;2023-08-06T06:28:57;5.50;;;1.30;;
2784;SDS011;57944;48.722;9.316;2023-08-06T06:31:27;3.73;;;1.73;;
2784;SDS011;57944;48.722;9.316;2023-08-06T06:34:01;6.77;;;1.60;;
2784;SDS011;57944;48.722;9.316;2023-08-06T06:36:32;7.40;;;1.80;;
2784;SDS011;57944;48.722;9.316;2023-08-06T06:39:03;2.77;;;1.27;;
2784;SDS011;57944;48.722;9.316;2023-08-06T06:41:34;4.30;;;1.80;;
2784;SDS011;57944;48.722;9.316;2023-08-06T06:44:16;3.33;;;1.40;;
2784;SDS011;57944;48.722;9.316;2023-08-06T06:46:47;4.10;;;1.33;;
2784;SDS011;57944;48.722;9.316;2023-08-06T06:49:20;2.87;;;1.20;;
2784;SDS011;57944;48.722;9.316;2023-08-06T06:51:51;3.07;;;1.50;;
2784;SDS011;57944;48.722;9.316;2023-08-06T06:54:22;3.33;;;1.50;;
2784;SDS011;57944;48.722;9.316;2023-08-06T06:56:53;3.00;;;1.50;;
2784;SDS011;57944;48.722;9.316;2023-08-06T06:59:24;4.40;;;1.43;;
2784;SDS011;57944;48.722;9.316;2023-08-06T07:01:55;2.63;;;1.50;;
2784;SDS011;57944;48.722;9.316;2023-08-06T07:04:29;3.57;;;1.47;;
2784;SDS011;57944;48.722;9.316;2023-08-06T07:07:00;4.00;;;1.47;;
2784;SDS011;57944;48.722;9.316;2023-08-06T07:09:30;5.97;;;1.30;;
2784;SDS011;57944;48.722;9.316;2023-08-06T07:12:02;3.47;;;1.30;;
2784;SDS011;57944;48.722;9.316;2023-08-06T07:14:33;3.43;;;1.30;;
2784;SDS011;57944;48.722;9.316;2023-08-06T07:17:05;2.70;;;1.43;;
2784;SDS011;57944;48.722;9.316;2023-08-06T07:19:39;2.70;;;1.20;;
2784;SDS011;57944;48.722;9.316;2023-08-06T07:22:09;2.60;;;1.27;;
2784;SDS011;57944;48.722;9.316;2023-08-06T07:24:40;2.63;;;1.00;;
2784;SDS011;57944;48.722;9.316;2023-08-06T07:27:11;2.60;;;1.00;;
2784;SDS011;57944;48.722;9.316;2023-08-06T07:29:42;2.80;;;1.10;;
2784;SDS011;57944;48.722;9.316;2023-08-06T07:32:13;2.90;;;1.63;;
2784;SDS011;57944;48.722;9.316;2023-08-06T07:34:46;3.63;;;1.30;;
2784;SDS011;57944;48.722;9.316;2023-08-06T07:37:23;3.13;;;1.20;;
2784;SDS011;57944;48.722;9.316;2023-08-06T07:39:54;3.10;;;1.13;;
2784;SDS011;57944;48.722;9.316;2023-08-06T07:42:26;2.50;;;1.10;;
2784;SDS011;57944;48.722;9.316;2023-08-06T07:44:57;2.83;;;1.10;;
2784;SDS011;57944;48.722;9.316;2023-08-06T07:47:28;3.20;;;1.10;;
2784;SDS011;57944;48.722;9.316;2023-08-06T07:50:02;2.60;;;1.00;;
2784;SDS011;57944;48.722;9.316;2023-08-06T07:52:33;2.27;;;0.97;;
2784;SDS011;57944;48.722;9.316;2023-08-06T07:55:04;2.00;;;0.80;;
2784;SDS011;57944;48.722;9.316;2023-08-06T07:57:35;2.80;;;1.30;;
2784;SDS011;57944;48.722;9.316;2023-08-06T08:00:07;2.20;;;1.00;;
2784;SDS011;57944;48.722;9.316;2023-08-06T08:02:40;3.03;;;1.20;;
2784;SDS011;57944;48.722;9.316;2023-08-06T08:05:13;2.33;;;0.90;;
2784;SDS011;57944;48.722;9.316;2023-08-06T08:07:45;2.47;;;0.87;;
2784;SDS011;57944;48.722;9.316;2023-08-06T08:10:15;2.57;;;0.87;;
2784;SDS011;57944;48.722;9.316;2023-08-06T08:12:46;2.63;;;0.80;;
2784;SDS011;57944;48.722;9.316;2023-08-06T08:15:17;2.60;;;0.83;;
2784;SDS011;57944;48.722;9.316;2023-08-06T08:17:48;2.20;;;1.00;;
2784;SDS011;57944;48.722;9.316;2023-08-06T08:20:21;2.47;;;0.70;;
2784;SDS011;57944;48.722;9.316;2023-08-06T08:22:54;3.50;;;0.97;;
2784;SDS011;57944;48.722;9.316;2023-08-06T08:25:25;4.20;;;1.00;;
2784;SDS011;57944;48.722;9.316;2023-08-06T08:27:58;2.63;;;1.00;;
2784;SDS011;57944;48.722;9.316;2023-08-06T08:30:29;2.17;;;0.93;;
2784;SDS011;57944;48.722;9.316;2023-08-06T08:33:00;2.10;;;0.83;;
2784;SDS011;57944;48.722;9.316;2023-08-06T08:35:33;2.00;;;0.80;;
2784;SDS011;57944;48.722;9.316;2023-08-06T08:38:06;2.10;;;0.80;;
2784;SDS011;57944;48.722;9.316;2023-08-06T08:40:37;2.50;;;0.90;;
2784;SDS011;57944;48.722;9.316;2023-08-06T08:43:14;2.60;;;1.20;;
2784;SDS011;57944;48.722;9.316;2023-08-06T08:45:45;2.47;;;0.90;;
2784;SDS011;57944;48.722;9.316;2023-08-06T08:48:21;2.10;;;0.80;;
2784;SDS011;57944;48.722;9.316;2023-08-06T08:50:56;3.07;;;0.80;;
2784;SDS011;57944;48.722;9.316;2023-08-06T08:53:28;2.20;;;0.80;;
2784;SDS011;57944;48.722;9.316;2023-08-06T08:55:59;2.10;;;0.73;;
2784;SDS011;57944;48.722;9.316;2023-08-06T08:58:30;2.37;;;0.90;;
2784;SDS011;57944;48.722;9.316;2023-08-06T09:01:02;2.53;;;0.80;;
2784;SDS011;57944;48.722;9.316;2023-08-06T09:03:33;2.00;;;0.70;;
2784;SDS011;57944;48.722;9.316;2023-08-06T09:06:08;2.10;;;0.87;;
2784;SDS011;57944;48.722;9.316;2023-08-06T09:08:41;2.10;;;0.70;;
2784;SDS011;57944;48.722;9.316;2023-08-06T09:11:19;2.20;;;0.80;;
2784;SDS011;57944;48.722;9.316;2023-08-06T09:13:51;2.00;;;0.70;;
2784;SDS011;57944;48.722;9.316;2023-08-06T09:16:23;2.37;;;1.00;;
2784;SDS011;57944;48.722;9.316;2023-08-06T09:18:54;6.30;;;1.20;;
2784;SDS011;57944;48.722;9.316;2023-08-06T09:21:39;2.60;;;1.40;;
2784;SDS011;57944;48.722;9.316;2023-08-06T09:24:27;2.43;;;1.10;;
2784;SDS011;57944;48.722;9.316;2023-08-06T09:26:58;2.70;;;1.00;;
2784;SDS011;57944;48.722;9.316;2023-08-06T09:29:33;2.30;;;1.00;;
2784;SDS011;57944;48.722;9.316;2023-08-06T09:32:04;3.03;;;1.43;;
2784;SDS011;57944;48.722;9.316;2023-08-06T09:34:35;2.30;;;0.80;;
2784;SDS011;57944;48.722;9.316;2023-08-06T09:37:11;2.10;;;0.80;;
2784;SDS011;57944;48.722;9.316;2023-08-06T09:39:41;2.70;;;1.23;;
2784;SDS011;57944;48.722;9.316;2023-08-06T09:42:14;2.57;;;0.80;;
2784;SDS011;57944;48.722;9.316;2023-08-06T09:44:45;2.77;;;0.80;;
2784;SDS011;57944;48.722;9.316;2023-08-06T09:47:16;2.10;;;0.80;;
2784;SDS011;57944;48.722;9.316;2023-08-06T09:49:50;2.73;;;0.93;;
2784;SDS011;57944;48.722;9.316;2023-08-06T09:56:02;3.07;;;1.10;;
2784;SDS011;57944;48.722;9.316;2023-08-06T09:58:33;2.50;;;0.90;;
2784;SDS011;57944;48.722;9.316;2023-08-06T10:01:06;2.10;;;0.87;;
2784;SDS011;57944;48.722;9.316;2023-08-06T10:03:37;3.47;;;1.07;;
2784;SDS011;57944;48.722;9.316;2023-08-06T10:06:09;3.00;;;1.10;;
2784;SDS011;57944;48.722;9.316;2023-08-06T10:08:40;2.40;;;0.80;;
2784;SDS011;57944;48.722;9.316;2023-08-06T10:11:14;2.10;;;0.80;;
2784;SDS011;57944;48.722;9.316;2023-08-06T10:13:47;2.63;;;0.83;;
2784;SDS011;57944;48.722;9.316;2023-08-06T10:16:19;3.60;;;1.00;;
2784;SDS011;57944;48.722;9.316;2023-08-06T10:18:51;2.63;;;1.00;;
2784;SDS011;57944;48.722;9.316;2023-08-06T10:21:23;2.30;;;0.90;;
2784;SDS011;57944;48.722;9.316;2023-08-06T10:23:54;3.07;;;1.00;;
2784;SDS011;57944;48.722;9.316;2023-08-06T10:26:29;3.07;;;1.30;;
2784;SDS011;57944;48.722;9.316;2023-08-06T10:29:00;2.30;;;1.03;;
2784;SDS011;57944;48.722;9.316;2023-08-06T10:34:24;2.80;;;0.97;;
2784;SDS011;57944;48.722;9.316;2023-08-06T11:04:17;2.07;;;0.77;;
2784;SDS011;57944;48.722;9.316;2023-08-06T11:06:51;2.73;;;1.10;;
2784;SDS011;57944;48.722;9.316;2023-08-06T11:09:22;3.70;;;0.90;;
2784;SDS011;57944;48.722;9.316;2023-08-06T11:11:53;2.77;;;1.10;;
2784;SDS011;57944;48.722;9.316;2023-08-06T11:14:24;2.10;;;0.80;;
2784;SDS011;57944;48.722;9.316;2023-08-06T11:16:55;2.40;;;0.90;;
2784;SDS011;57944;48.722;9.316;2023-08-06T11:19:28;2.83;;;1.10;;
2784;SDS011;57944;48.722;9.316;2023-08-06T11:21:59;1.90;;;0.70;;
2784;SDS011;57944;48.722;9.316;2023-08-06T11:24:30;3.83;;;0.80;;
2784;SDS011;57944;48.722;9.316;2023-08-06T11:27:01;2.00;;;0.80;;
2784;SDS011;57944;48.722;9.316;2023-08-06T11:29:40;2.20;;;1.10;;
2784;SDS011;57944;48.722;9.316;2023-08-06T11:32:12;2.33;;;0.87;;
2784;SDS011;57944;48.722;9.316;2023-08-06T11:34:46;2.83;;;0.80;;
2784;SDS011;57944;48.722;9.316;2023-08-06T11:37:17;3.77;;;1.13;;
2784;SDS011;57944;48.722;9.316;2023-08-06T11:39:52;2.30;;;1.17;;
2784;SDS011;57944;48.722;9.316;2023-08-06T11:42:27;2.43;;;1.33;;
2784;SDS011;57944;48.722;9.316;2023-08-06T11:45:03;2.50;;;1.13;;
2784;SDS011;57944;48.722;9.316;2023-08-06T11:47:37;2.20;;;1.00;;
2784;SDS011;57944;48.722;9.316;2023-08-06T11:50:12;3.70;;;1.37;;
2784;SDS011;57944;48.722;9.316;2023-08-06T11:52:53;2.53;;;1.47;;
2784;SDS011;57944;48.722;9.316;2023-08-06T11:55:27;2.77;;;1.10;;
2784;SDS011;57944;48.722;9.316;2023-08-06T11:57:59;2.20;;;1.10;;
2784;SDS011;57944;48.722;9.316;2023-08-06T12:00:34;2.87;;;1.40;;
2784;SDS011;57944;48.722;9.316;2023-08-06T12:03:06;6.20;;;1.40;;
2784;SDS011;57944;48.722;9.316;2023-08-06T12:05:39;2.43;;;1.27;;
2784;SDS011;57944;48.722;9.316;2023-08-06T12:08:10;2.20;;;1.00;;
2784;SDS011;57944;48.722;9.316;2023-08-06T12:10:41;8.10;;;1.50;;
2784;SDS011;57944;48.722;9.316;2023-08-06T12:13:13;5.03;;;1.60;;
2784;SDS011;57944;48.722;9.316;2023-08-06T12:15:44;5.60;;;1.43;;
2784;SDS011;57944;48.722;9.316;2023-08-06T12:18:15;2.80;;;1.60;;
2784;SDS011;57944;48.722;9.316;2023-08-06T12:20:48;3.80;;;1.47;;
2784;SDS011;57944;48.722;9.316;2023-08-06T12:23:19;4.70;;;1.50;;
2784;SDS011;57944;48.722;9.316;2023-08-06T12:25:51;2.50;;;1.30;;
2784;SDS011;57944;48.722;9.316;2023-08-06T12:28:21;3.47;;;1.70;;
2784;SDS011;57944;48.722;9.316;2023-08-06T12:30:52;2.53;;;1.20;;
2784;SDS011;57944;48.722;9.316;2023-08-06T12:33:24;5.70;;;1.43;;
2784;SDS011;57944;48.722;9.316;2023-08-06T12:35:57;2.60;;;1.20;;
2784;SDS011;57944;48.722;9.316;2023-08-06T12:38:28;2.90;;;1.40;;
2784;SDS011;57944;48.722;9.316;2023-08-06T12:41:00;3.80;;;1.40;;
2784;SDS011;57944;48.722;9.316;2023-08-06T12:43:32;3.37;;;1.50;;
2784;SDS011;57944;48.722;9.316;2023-08-06T12:46:03;3.53;;;1.43;;
2784;SDS011;57944;48.722;9.316;2023-08-06T12:48:34;5.03;;;1.40;;
2784;SDS011;57944;48.722;9.316;2023-08-06T12:51:08;2.80;;;1.50;;
2784;SDS011;57944;48.722;9.316;2023-08-06T12:53:38;3.40;;;1.57;;
2784;SDS011;57944;48.722;9.316;2023-08-06T12:56:09;2.60;;;1.33;;
2784;SDS011;57944;48.722;9.316;2023-08-06T12:58:40;3.03;;;1.63;;
2784;SDS011;57944;48.722;9.316;2023-08-06T13:01:11;3.17;;;1.37;;
2784;SDS011;57944;48.722;9.316;2023-08-06T13:03:42;2.40;;;1.10;;
2784;SDS011;57944;48.722;9.316;2023-08-06T13:06:15;2.73;;;1.60;;
2784;SDS011;57944;48.722;9.316;2023-08-06T13:08:47;2.57;;;1.37;;
2784;SDS011;57944;48.722;9.316;2023-08-06T13:11:17;2.50;;;1.17;;
2784;SDS011;57944;48.722;9.316;2023-08-06T13:13:48;3.77;;;1.03;;
2784;SDS011;57944;48.722;9.316;2023-08-06T13:16:19;4.60;;;1.23;;
2784;SDS011;57944;48.722;9.316;2023-08-06T13:18:50;4.30;;;1.60;;
2784;SDS011;57944;48.722;9.316;2023-08-06T13:21:23;3.20;;;1.43;;
2784;SDS011;57944;48.722;9.316;2023-08-06T13:24:00;4.93;;;1.50;;
2784;SDS011;57944;48.722;9.316;2023-08-06T13:26:31;2.67;;;1.10;;
2784;SDS011;57944;48.722;9.316;2023-08-06T13:29:02;2.90;;;1.50;;
2784;SDS011;57944;48.722;9.316;2023-08-06T13:31:33;3.17;;;1.47;;
2784;SDS011;57944;48.722;9.316;2023-08-06T13:34:04;3.17;;;1.53;;
2784;SDS011;57944;48.722;9.316;2023-08-06T13:36:38;3.90;;;1.73;;
2784;SDS011;57944;48.722;9.316;2023-08-06T13:39:09;3.23;;;1.20;;
2784;SDS011;57944;48.722;9.316;2023-08-06T13:41:43;3.10;;;1.50;;
2784;SDS011;57944;48.722;9.316;2023-08-06T13:44:13;3.90;;;1.40;;
2784;SDS011;57944;48.722;9.316;2023-08-06T13:46:44;2.63;;;1.63;;
2784;SDS011;57944;48.722;9.316;2023-08-06T13:49:15;4.10;;;1.60;;
2784;SDS011;57944;48.722;9.316;2023-08-06T13:51:49;2.97;;;1.30;;
2784;SDS011;57944;48.722;9.316;2023-08-06T13:54:21;3.27;;;1.53;;
2784;SDS011;57944;48.722;9.316;2023-08-06T13:56:52;2.60;;;1.23;;
2784;SDS011;57944;48.722;9.316;2023-08-06T13:59:23;2.30;;;1.00;;
2784;SDS011;57944;48.722;9.316;2023-08-06T14:01:54;2.60;;;1.30;;
2784;SDS011;57944;48.722;9.316;2023-08-06T14:04:26;2.50;;;1.10;;
2784;SDS011;57944;48.722;9.316;2023-08-06T14:06:59;5.90;;;1.10;;
2784;SDS011;57944;48.722;9.316;2023-08-06T14:09:30;3.60;;;1.10;;
2784;SDS011;57944;48.722;9.316;2023-08-06T14:12:01;2.60;;;1.00;;
2784;SDS011;57944;48.722;9.316;2023-08-06T14:14:32;2.60;;;1.20;;
2784;SDS011;57944;48.722;9.316;2023-08-06T14:17:03;3.53;;;1.13;;
2784;SDS011;57944;48.722;9.316;2023-08-06T14:19:34;2.40;;;1.03;;
2784;SDS011;57944;48.722;9.316;2023-08-06T14:22:07;2.30;;;1.10;;
2784;SDS011;57944;48.722;9.316;2023-08-06T14:24:38;2.40;;;1.10;;
2784;SDS011;57944;48.722;9.316;2023-08-06T14:27:09;2.20;;;1.10;;
2784;SDS011;57944;48.722;9.316;2023-08-06T14:29:40;2.70;;;1.20;;
2784;SDS011;57944;48.722;9.316;2023-08-06T14:32:10;3.13;;;1.03;;
2784;SDS011;57944;48.722;9.316;2023-08-06T14:34:44;2.33;;;0.90;;
2784;SDS011;57944;48.722;9.316;2023-08-06T14:37:18;3.20;;;1.27;;
2784;SDS011;57944;48.722;9.316;2023-08-06T14:39:49;3.03;;;1.43;;
2784;SDS011;57944;48.722;9.316;2023-08-06T14:42:20;2.30;;;1.10;;
2784;SDS011;57944;48.722;9.316;2023-08-06T14:44:51;2.93;;;1.37;;
2784;SDS011;57944;48.722;9.316;2023-08-06T14:47:22;2.87;;;1.43;;
2784;SDS011;57944;48.722;9.316;2023-08-06T14:49:52;2.37;;;1.30;;
2784;SDS011;57944;48.722;9.316;2023-08-06T14:52:26;3.13;;;1.27;;
2784;SDS011;57944;48.722;9.316;2023-08-06T14:54:56;2.47;;;1.10;;
2784;SDS011;57944;48.722;9.316;2023-08-06T14:57:29;2.60;;;1.13;;
2784;SDS011;57944;48.722;9.316;2023-08-06T15:00:00;2.97;;;1.30;;
2784;SDS011;57944;48.722;9.316;2023-08-06T15:02:30;2.50;;;0.90;;
2784;SDS011;57944;48.722;9.316;2023-08-06T15:05:01;2.90;;;1.60;;
2784;SDS011;57944;48.722;9.316;2023-08-06T15:07:35;3.23;;;1.30;;
2784;SDS011;57944;48.722;9.316;2023-08-06T15:10:06;3.17;;;1.40;;
2784;SDS011;57944;48.722;9.316;2023-08-06T15:12:40;2.70;;;1.43;;
2784;SDS011;57944;48.722;9.316;2023-08-06T15:15:11;2.30;;;1.10;;
2784;SDS011;57944;48.722;9.316;2023-08-06T15:17:43;2.07;;;1.00;;
2784;SDS011;57944;48.722;9.316;2023-08-06T15:20:13;2.30;;;1.30;;
2784;SDS011;57944;48.722;9.316;2023-08-06T15:22:47;2.87;;;1.10;;
2784;SDS011;57944;48.722;9.316;2023-08-06T15:25:18;2.90;;;1.30;;
2784;SDS011;57944;48.722;9.316;2023-08-06T15:27:49;2.50;;;1.17;;
2784;SDS011;57944;48.722;9.316;2023-08-06T15:30:20;2.87;;;1.43;;
2784;SDS011;57944;48.722;9.316;2023-08-06T15:32:50;3.00;;;1.20;;
2784;SDS011;57944;48.722;9.316;2023-08-06T15:35:21;2.33;;;1.03;;
2784;SDS011;57944;48.722;9.316;2023-08-06T15:37:54;3.23;;;1.37;;
2784;SDS011;57944;48.722;9.316;2023-08-06T15:40:25;2.90;;;1.23;;
2784;SDS011;57944;48.722;9.316;2023-08-06T15:42:56;2.53;;;1.20;;
2784;SDS011;57944;48.722;9.316;2023-08-06T15:45:27;3.17;;;1.30;;
2784;SDS011;57944;48.722;9.316;2023-08-06T15:47:58;2.93;;;1.07;;
2784;SDS011;57944;48.722;9.316;2023-08-06T15:50:28;2.33;;;1.00;;
2784;SDS011;57944;48.722;9.316;2023-08-06T15:53:02;3.67;;;1.50;;
2784;SDS011;57944;48.722;9.316;2023-08-06T15:55:33;2.83;;;1.10;;
2784;SDS011;57944;48.722;9.316;2023-08-06T15:58:04;2.70;;;1.30;;
2784;SDS011;57944;48.722;9.316;2023-08-06T16:00:35;2.90;;;1.50;;
2784;SDS011;57944;48.722;9.316;2023-08-06T16:03:06;2.60;;;1.27;;
2784;SDS011;57944;48.722;9.316;2023-08-06T16:05:37;3.17;;;1.20;;
2784;SDS011;57944;48.722;9.316;2023-08-06T16:08:12;2.77;;;1.53;;
2784;SDS011;57944;48.722;9.316;2023-08-06T16:10:43;3.20;;;1.43;;
2784;SDS011;57944;48.722;9.316;2023-08-06T16:13:13;3.30;;;1.20;;
2784;SDS011;57944;48.722;9.316;2023-08-06T16:15:44;3.80;;;1.20;;